This is the latest recevied weather packets stored in our database for station/object URMM. If no packets are shown the sender has not sent any weather packets the latest 10 day(s).
| Time | Temp. | Humidity | Pressure | Rain* | Wind** | Luminosity | Snow |
|---|---|---|---|---|---|---|---|
| 1778275844 | 10.56° C | 87% | 1020 hPa | - | - | - | - |
| 1778274043 | 10.56° C | 87% | 1020 hPa | - | - | - | - |
| 1778272241 | 10.56° C | 93% | 1019 hPa | - | - | - | - |
| 1778270441 | 11.67° C | 87% | 1019 hPa | - | - | - | - |
| 1778268644 | 11.67° C | 87% | 1020 hPa | - | - | - | - |
| 1778265041 | 12.78° C | 87% | 1019 hPa | - | - | - | - |
| 1778263243 | 13.89° C | 76% | 1019 hPa | - | - | - | - |
| 1778261442 | 15.56° C | 67% | 1019 hPa | - | - | - | - |
| 1778259641 | 16.67° C | 67% | 1018 hPa | - | - | - | - |
| 1778257842 | 17.78° C | 63% | 1018 hPa | - | - | - | - |
| 1778256042 | 20° C | 56% | 1018 hPa | - | - | - | - |
| 1778254242 | 20.56° C | 56% | 1018 hPa | - | - | - | - |
| 1778252441 | 21.67° C | 46% | 1018 hPa | - | - | - | - |
| 1778248841 | 21.67° C | 43% | 1018 hPa | - | - | - | - |
| 1778247042 | 22.78° C | 46% | 1018 hPa | - | - | - | - |
| 1778243443 | 21.67° C | 43% | 1018 hPa | - | - | - | - |
| 1778241643 | 20.56° C | 49% | 1018 hPa | - | - | - | - |
| 1778239843 | 20.56° C | 49% | 1019 hPa | - | - | - | - |
| 1778238042 | 21.67° C | 49% | 1019 hPa | - | - | - | - |
| 1778236242 | 20.56° C | 52% | 1019 hPa | - | - | - | - |
| 1778234441 | 20.56° C | 56% | 1019 hPa | - | - | - | - |
| 1778232643 | 20° C | 56% | 1019 hPa | - | - | - | - |
| 1778230843 | 18.89° C | 59% | 1019 hPa | - | - | - | - |
| 1778229042 | 17.78° C | 63% | 1020 hPa | - | - | - | - |
| 1778227242 | 17.78° C | 59% | 1020 hPa | - | - | - | - |
* Rain since midnight (hover to see other rain measurements)
** Current wind speed in m/s (hover to see current wind gust speed)